sensor_id;sensor_type;location;lat;lon;timestamp;P1;durP1;ratioP1;P2;durP2;ratioP2
55633;SDS011;41504;53.162;6.788;2023-11-21T00:00:18;18.55;;;6.03;;
55633;SDS011;41504;53.162;6.788;2023-11-21T00:02:45;15.73;;;6.25;;
55633;SDS011;41504;53.162;6.788;2023-11-21T00:05:11;15.30;;;5.60;;
55633;SDS011;41504;53.162;6.788;2023-11-21T00:07:39;14.73;;;6.20;;
55633;SDS011;41504;53.162;6.788;2023-11-21T00:10:06;14.50;;;6.40;;
55633;SDS011;41504;53.162;6.788;2023-11-21T00:12:33;17.65;;;6.57;;
55633;SDS011;41504;53.162;6.788;2023-11-21T00:14:59;14.43;;;5.90;;
55633;SDS011;41504;53.162;6.788;2023-11-21T00:17:26;17.13;;;6.70;;
55633;SDS011;41504;53.162;6.788;2023-11-21T00:19:52;17.20;;;5.88;;
55633;SDS011;41504;53.162;6.788;2023-11-21T00:22:18;19.10;;;5.78;;
55633;SDS011;41504;53.162;6.788;2023-11-21T00:24:44;17.55;;;6.10;;
55633;SDS011;41504;53.162;6.788;2023-11-21T00:27:11;16.15;;;6.07;;
55633;SDS011;41504;53.162;6.788;2023-11-21T00:29:36;17.75;;;6.55;;
55633;SDS011;41504;53.162;6.788;2023-11-21T00:32:05;20.70;;;6.38;;
55633;SDS011;41504;53.162;6.788;2023-11-21T00:34:32;17.27;;;6.45;;
55633;SDS011;41504;53.162;6.788;2023-11-21T00:36:59;17.90;;;6.07;;
55633;SDS011;41504;53.162;6.788;2023-11-21T00:39:29;16.55;;;6.28;;
55633;SDS011;41504;53.162;6.788;2023-11-21T00:41:55;18.67;;;6.25;;
55633;SDS011;41504;53.162;6.788;2023-11-21T00:44:20;16.05;;;5.97;;
55633;SDS011;41504;53.162;6.788;2023-11-21T00:46:49;18.15;;;6.43;;
55633;SDS011;41504;53.162;6.788;2023-11-21T00:49:15;18.08;;;6.80;;
55633;SDS011;41504;53.162;6.788;2023-11-21T00:51:41;18.10;;;6.90;;
55633;SDS011;41504;53.162;6.788;2023-11-21T00:54:07;20.08;;;6.85;;
55633;SDS011;41504;53.162;6.788;2023-11-21T00:56:32;20.23;;;6.72;;
55633;SDS011;41504;53.162;6.788;2023-11-21T00:58:59;17.95;;;7.03;;
55633;SDS011;41504;53.162;6.788;2023-11-21T01:01:24;18.58;;;7.18;;
55633;SDS011;41504;53.162;6.788;2023-11-21T01:03:50;16.48;;;6.75;;
55633;SDS011;41504;53.162;6.788;2023-11-21T01:06:16;15.88;;;5.65;;
55633;SDS011;41504;53.162;6.788;2023-11-21T01:08:45;19.63;;;6.00;;
55633;SDS011;41504;53.162;6.788;2023-11-21T01:11:11;15.65;;;6.00;;
55633;SDS011;41504;53.162;6.788;2023-11-21T01:13:40;17.50;;;6.45;;
55633;SDS011;41504;53.162;6.788;2023-11-21T01:16:07;16.85;;;6.05;;
55633;SDS011;41504;53.162;6.788;2023-11-21T01:18:34;19.42;;;7.28;;
55633;SDS011;41504;53.162;6.788;2023-11-21T01:21:00;24.75;;;6.35;;
55633;SDS011;41504;53.162;6.788;2023-11-21T01:23:26;15.00;;;6.00;;
55633;SDS011;41504;53.162;6.788;2023-11-21T01:25:52;15.68;;;6.40;;
55633;SDS011;41504;53.162;6.788;2023-11-21T01:28:22;16.52;;;6.57;;
55633;SDS011;41504;53.162;6.788;2023-11-21T01:30:48;19.63;;;7.55;;
55633;SDS011;41504;53.162;6.788;2023-11-21T01:33:14;19.48;;;7.28;;
55633;SDS011;41504;53.162;6.788;2023-11-21T01:35:42;20.98;;;8.90;;
55633;SDS011;41504;53.162;6.788;2023-11-21T01:38:08;17.48;;;9.10;;
55633;SDS011;41504;53.162;6.788;2023-11-21T01:40:34;20.75;;;9.40;;
55633;SDS011;41504;53.162;6.788;2023-11-21T01:43:00;17.33;;;8.90;;
55633;SDS011;41504;53.162;6.788;2023-11-21T01:45:29;20.85;;;8.80;;
55633;SDS011;41504;53.162;6.788;2023-11-21T01:47:58;22.75;;;10.02;;
55633;SDS011;41504;53.162;6.788;2023-11-21T01:50:25;19.42;;;8.20;;
55633;SDS011;41504;53.162;6.788;2023-11-21T01:52:52;19.23;;;8.35;;
55633;SDS011;41504;53.162;6.788;2023-11-21T01:55:18;18.63;;;9.35;;
55633;SDS011;41504;53.162;6.788;2023-11-21T01:57:45;20.88;;;9.05;;
55633;SDS011;41504;53.162;6.788;2023-11-21T02:00:13;20.40;;;8.40;;
55633;SDS011;41504;53.162;6.788;2023-11-21T02:02:44;22.45;;;9.65;;
55633;SDS011;41504;53.162;6.788;2023-11-21T02:05:11;20.48;;;8.93;;
55633;SDS011;41504;53.162;6.788;2023-11-21T02:07:41;21.10;;;9.30;;
55633;SDS011;41504;53.162;6.788;2023-11-21T02:10:10;21.58;;;10.07;;
55633;SDS011;41504;53.162;6.788;2023-11-21T02:15:12;21.30;;;10.38;;
55633;SDS011;41504;53.162;6.788;2023-11-21T02:17:45;24.02;;;11.18;;
55633;SDS011;41504;53.162;6.788;2023-11-21T02:20:23;19.67;;;10.40;;
55633;SDS011;41504;53.162;6.788;2023-11-21T02:25:25;24.52;;;10.77;;
55633;SDS011;41504;53.162;6.788;2023-11-21T02:27:54;26.48;;;11.13;;
55633;SDS011;41504;53.162;6.788;2023-11-21T02:30:25;21.38;;;10.80;;
55633;SDS011;41504;53.162;6.788;2023-11-21T02:32:53;22.67;;;10.18;;
55633;SDS011;41504;53.162;6.788;2023-11-21T02:35:20;20.80;;;9.98;;
55633;SDS011;41504;53.162;6.788;2023-11-21T02:37:50;23.58;;;10.98;;
55633;SDS011;41504;53.162;6.788;2023-11-21T02:40:17;25.77;;;11.00;;
55633;SDS011;41504;53.162;6.788;2023-11-21T02:42:43;25.92;;;10.77;;
55633;SDS011;41504;53.162;6.788;2023-11-21T02:45:09;22.15;;;10.75;;
55633;SDS011;41504;53.162;6.788;2023-11-21T02:47:37;23.25;;;10.70;;
55633;SDS011;41504;53.162;6.788;2023-11-21T02:50:04;23.13;;;10.57;;
55633;SDS011;41504;53.162;6.788;2023-11-21T02:52:31;26.65;;;11.13;;
55633;SDS011;41504;53.162;6.788;2023-11-21T02:54:58;25.73;;;11.50;;
55633;SDS011;41504;53.162;6.788;2023-11-21T02:57:24;29.17;;;12.15;;
55633;SDS011;41504;53.162;6.788;2023-11-21T02:59:50;24.67;;;11.15;;
55633;SDS011;41504;53.162;6.788;2023-11-21T03:02:18;22.27;;;10.20;;
55633;SDS011;41504;53.162;6.788;2023-11-21T03:04:44;25.77;;;11.35;;
55633;SDS011;41504;53.162;6.788;2023-11-21T03:07:10;27.63;;;10.20;;
55633;SDS011;41504;53.162;6.788;2023-11-21T03:09:38;26.08;;;12.05;;
55633;SDS011;41504;53.162;6.788;2023-11-21T03:12:05;28.58;;;11.38;;
55633;SDS011;41504;53.162;6.788;2023-11-21T03:14:30;30.70;;;11.57;;
55633;SDS011;41504;53.162;6.788;2023-11-21T03:16:56;25.23;;;11.18;;
55633;SDS011;41504;53.162;6.788;2023-11-21T03:19:22;23.52;;;11.70;;
55633;SDS011;41504;53.162;6.788;2023-11-21T03:21:48;27.98;;;11.68;;
55633;SDS011;41504;53.162;6.788;2023-11-21T03:24:14;26.63;;;11.98;;
55633;SDS011;41504;53.162;6.788;2023-11-21T03:26:45;26.05;;;12.48;;
55633;SDS011;41504;53.162;6.788;2023-11-21T03:29:11;25.83;;;12.02;;
55633;SDS011;41504;53.162;6.788;2023-11-21T03:31:37;29.25;;;12.45;;
55633;SDS011;41504;53.162;6.788;2023-11-21T03:34:03;26.10;;;12.00;;
55633;SDS011;41504;53.162;6.788;2023-11-21T03:36:29;29.85;;;12.52;;
55633;SDS011;41504;53.162;6.788;2023-11-21T03:38:55;27.58;;;12.85;;
55633;SDS011;41504;53.162;6.788;2023-11-21T03:41:20;27.75;;;12.27;;
55633;SDS011;41504;53.162;6.788;2023-11-21T03:43:46;28.35;;;12.63;;
55633;SDS011;41504;53.162;6.788;2023-11-21T03:46:12;28.65;;;13.20;;
55633;SDS011;41504;53.162;6.788;2023-11-21T03:48:38;27.00;;;11.68;;
55633;SDS011;41504;53.162;6.788;2023-11-21T03:51:04;30.35;;;12.60;;
55633;SDS011;41504;53.162;6.788;2023-11-21T03:53:30;27.35;;;11.85;;
55633;SDS011;41504;53.162;6.788;2023-11-21T03:55:56;26.33;;;11.98;;
55633;SDS011;41504;53.162;6.788;2023-11-21T03:58:26;22.60;;;11.23;;
55633;SDS011;41504;53.162;6.788;2023-11-21T04:00:52;28.25;;;13.00;;
55633;SDS011;41504;53.162;6.788;2023-11-21T04:03:17;30.15;;;12.77;;
55633;SDS011;41504;53.162;6.788;2023-11-21T04:05:45;27.50;;;12.07;;
55633;SDS011;41504;53.162;6.788;2023-11-21T04:08:11;26.45;;;12.93;;
55633;SDS011;41504;53.162;6.788;2023-11-21T04:10:36;22.77;;;11.50;;
55633;SDS011;41504;53.162;6.788;2023-11-21T04:13:04;25.00;;;11.32;;
55633;SDS011;41504;53.162;6.788;2023-11-21T04:15:31;21.58;;;11.77;;
55633;SDS011;41504;53.162;6.788;2023-11-21T04:17:58;30.20;;;12.40;;
55633;SDS011;41504;53.162;6.788;2023-11-21T04:20:23;23.02;;;11.45;;
55633;SDS011;41504;53.162;6.788;2023-11-21T04:22:49;24.83;;;12.15;;
55633;SDS011;41504;53.162;6.788;2023-11-21T04:25:15;24.88;;;11.93;;
55633;SDS011;41504;53.162;6.788;2023-11-21T04:27:41;25.67;;;11.60;;
55633;SDS011;41504;53.162;6.788;2023-11-21T04:30:09;21.77;;;12.20;;
55633;SDS011;41504;53.162;6.788;2023-11-21T04:32:36;25.02;;;12.73;;
55633;SDS011;41504;53.162;6.788;2023-11-21T04:35:02;25.02;;;11.57;;
55633;SDS011;41504;53.162;6.788;2023-11-21T04:37:29;23.20;;;11.32;;
55633;SDS011;41504;53.162;6.788;2023-11-21T04:39:55;20.77;;;10.85;;
55633;SDS011;41504;53.162;6.788;2023-11-21T04:42:21;18.80;;;10.45;;
55633;SDS011;41504;53.162;6.788;2023-11-21T04:44:47;23.48;;;11.23;;
55633;SDS011;41504;53.162;6.788;2023-11-21T04:47:13;24.42;;;11.25;;
55633;SDS011;41504;53.162;6.788;2023-11-21T04:49:41;28.33;;;12.02;;
55633;SDS011;41504;53.162;6.788;2023-11-21T04:52:07;25.25;;;12.27;;
55633;SDS011;41504;53.162;6.788;2023-11-21T04:54:34;31.55;;;12.70;;
55633;SDS011;41504;53.162;6.788;2023-11-21T04:57:00;29.33;;;12.38;;
55633;SDS011;41504;53.162;6.788;2023-11-21T04:59:26;29.92;;;12.32;;
55633;SDS011;41504;53.162;6.788;2023-11-21T05:01:52;32.10;;;12.02;;
55633;SDS011;41504;53.162;6.788;2023-11-21T05:04:19;32.20;;;11.77;;
55633;SDS011;41504;53.162;6.788;2023-11-21T05:06:47;32.72;;;12.05;;
55633;SDS011;41504;53.162;6.788;2023-11-21T05:09:13;31.05;;;11.13;;
55633;SDS011;41504;53.162;6.788;2023-11-21T05:11:39;30.88;;;11.88;;
55633;SDS011;41504;53.162;6.788;2023-11-21T05:14:06;30.13;;;12.32;;
55633;SDS011;41504;53.162;6.788;2023-11-21T05:16:32;31.58;;;11.82;;
55633;SDS011;41504;53.162;6.788;2023-11-21T05:18:58;30.98;;;11.45;;
55633;SDS011;41504;53.162;6.788;2023-11-21T05:21:26;27.40;;;11.55;;
55633;SDS011;41504;53.162;6.788;2023-11-21T05:23:52;22.63;;;10.43;;
55633;SDS011;41504;53.162;6.788;2023-11-21T05:26:18;23.65;;;10.98;;
55633;SDS011;41504;53.162;6.788;2023-11-21T05:28:44;22.38;;;10.40;;
55633;SDS011;41504;53.162;6.788;2023-11-21T05:31:10;21.65;;;10.15;;
55633;SDS011;41504;53.162;6.788;2023-11-21T05:33:36;21.48;;;9.25;;
55633;SDS011;41504;53.162;6.788;2023-11-21T05:36:02;18.80;;;8.65;;
55633;SDS011;41504;53.162;6.788;2023-11-21T05:38:28;18.88;;;8.60;;
55633;SDS011;41504;53.162;6.788;2023-11-21T05:40:54;20.48;;;8.88;;
55633;SDS011;41504;53.162;6.788;2023-11-21T05:43:20;19.67;;;9.18;;
55633;SDS011;41504;53.162;6.788;2023-11-21T05:45:46;17.05;;;8.93;;
55633;SDS011;41504;53.162;6.788;2023-11-21T05:48:11;18.50;;;9.65;;
55633;SDS011;41504;53.162;6.788;2023-11-21T05:50:37;18.10;;;10.10;;
55633;SDS011;41504;53.162;6.788;2023-11-21T05:53:03;21.42;;;9.30;;
55633;SDS011;41504;53.162;6.788;2023-11-21T05:55:29;20.40;;;9.45;;
55633;SDS011;41504;53.162;6.788;2023-11-21T05:57:55;22.48;;;9.85;;
55633;SDS011;41504;53.162;6.788;2023-11-21T06:00:21;18.63;;;9.65;;
55633;SDS011;41504;53.162;6.788;2023-11-21T06:02:50;18.73;;;10.00;;
55633;SDS011;41504;53.162;6.788;2023-11-21T06:05:18;20.48;;;9.80;;
55633;SDS011;41504;53.162;6.788;2023-11-21T06:07:46;21.10;;;10.32;;
55633;SDS011;41504;53.162;6.788;2023-11-21T06:10:11;20.20;;;10.27;;
55633;SDS011;41504;53.162;6.788;2023-11-21T06:12:39;20.20;;;10.30;;
55633;SDS011;41504;53.162;6.788;2023-11-21T06:15:08;19.55;;;10.60;;
55633;SDS011;41504;53.162;6.788;2023-11-21T06:17:37;17.33;;;10.55;;
55633;SDS011;41504;53.162;6.788;2023-11-21T06:20:05;20.50;;;11.98;;
55633;SDS011;41504;53.162;6.788;2023-11-21T06:22:35;18.17;;;11.15;;
55633;SDS011;41504;53.162;6.788;2023-11-21T06:25:05;23.80;;;13.15;;
55633;SDS011;41504;53.162;6.788;2023-11-21T06:27:33;23.50;;;13.07;;
55633;SDS011;41504;53.162;6.788;2023-11-21T06:30:01;22.33;;;12.80;;
55633;SDS011;41504;53.162;6.788;2023-11-21T06:32:27;21.60;;;12.15;;
55633;SDS011;41504;53.162;6.788;2023-11-21T06:34:55;20.92;;;12.48;;
55633;SDS011;41504;53.162;6.788;2023-11-21T06:37:21;22.40;;;12.90;;
55633;SDS011;41504;53.162;6.788;2023-11-21T06:39:51;19.30;;;11.80;;
55633;SDS011;41504;53.162;6.788;2023-11-21T06:42:19;18.88;;;11.30;;
55633;SDS011;41504;53.162;6.788;2023-11-21T06:44:45;20.50;;;11.88;;
55633;SDS011;41504;53.162;6.788;2023-11-21T06:47:12;21.25;;;12.60;;
55633;SDS011;41504;53.162;6.788;2023-11-21T06:49:37;20.48;;;12.55;;
55633;SDS011;41504;53.162;6.788;2023-11-21T06:52:03;20.45;;;12.93;;
55633;SDS011;41504;53.162;6.788;2023-11-21T06:54:30;20.88;;;11.85;;
55633;SDS011;41504;53.162;6.788;2023-11-21T06:56:56;19.90;;;12.95;;
55633;SDS011;41504;53.162;6.788;2023-11-21T06:59:23;20.55;;;12.48;;
55633;SDS011;41504;53.162;6.788;2023-11-21T07:01:49;20.00;;;12.00;;
55633;SDS011;41504;53.162;6.788;2023-11-21T07:04:15;17.70;;;11.15;;
55633;SDS011;41504;53.162;6.788;2023-11-21T07:06:44;18.88;;;11.02;;
55633;SDS011;41504;53.162;6.788;2023-11-21T07:09:10;18.45;;;10.93;;
55633;SDS011;41504;53.162;6.788;2023-11-21T07:11:36;17.92;;;11.52;;
55633;SDS011;41504;53.162;6.788;2023-11-21T07:14:03;17.58;;;11.82;;
55633;SDS011;41504;53.162;6.788;2023-11-21T07:16:35;20.77;;;12.90;;
55633;SDS011;41504;53.162;6.788;2023-11-21T07:19:05;19.50;;;12.32;;
55633;SDS011;41504;53.162;6.788;2023-11-21T07:21:32;22.23;;;13.82;;
55633;SDS011;41504;53.162;6.788;2023-11-21T07:23:59;20.38;;;13.13;;
55633;SDS011;41504;53.162;6.788;2023-11-21T07:26:28;22.02;;;13.93;;
55633;SDS011;41504;53.162;6.788;2023-11-21T07:28:54;21.77;;;13.75;;
55633;SDS011;41504;53.162;6.788;2023-11-21T07:31:21;19.88;;;12.75;;
55633;SDS011;41504;53.162;6.788;2023-11-21T07:33:50;20.48;;;13.43;;
55633;SDS011;41504;53.162;6.788;2023-11-21T07:36:23;21.52;;;12.40;;
55633;SDS011;41504;53.162;6.788;2023-11-21T07:38:49;22.52;;;14.60;;
55633;SDS011;41504;53.162;6.788;2023-11-21T07:41:15;24.77;;;15.68;;
55633;SDS011;41504;53.162;6.788;2023-11-21T07:43:42;28.08;;;16.73;;
55633;SDS011;41504;53.162;6.788;2023-11-21T07:46:11;24.75;;;15.40;;
55633;SDS011;41504;53.162;6.788;2023-11-21T07:48:38;24.52;;;16.45;;
55633;SDS011;41504;53.162;6.788;2023-11-21T07:51:06;25.85;;;16.33;;
55633;SDS011;41504;53.162;6.788;2023-11-21T07:53:32;26.85;;;16.02;;
55633;SDS011;41504;53.162;6.788;2023-11-21T07:56:04;23.92;;;15.88;;
55633;SDS011;41504;53.162;6.788;2023-11-21T07:58:32;22.55;;;15.32;;
55633;SDS011;41504;53.162;6.788;2023-11-21T08:00:59;26.35;;;16.48;;
55633;SDS011;41504;53.162;6.788;2023-11-21T08:03:25;24.40;;;16.90;;
55633;SDS011;41504;53.162;6.788;2023-11-21T08:05:57;26.63;;;17.77;;
55633;SDS011;41504;53.162;6.788;2023-11-21T08:08:23;22.10;;;15.70;;
55633;SDS011;41504;53.162;6.788;2023-11-21T08:10:50;23.75;;;16.15;;
55633;SDS011;41504;53.162;6.788;2023-11-21T08:13:25;20.60;;;15.63;;
55633;SDS011;41504;53.162;6.788;2023-11-21T08:15:55;20.95;;;15.35;;
55633;SDS011;41504;53.162;6.788;2023-11-21T08:18:26;23.02;;;15.23;;
55633;SDS011;41504;53.162;6.788;2023-11-21T08:20:52;18.45;;;13.80;;
55633;SDS011;41504;53.162;6.788;2023-11-21T08:23:20;18.75;;;14.18;;
55633;SDS011;41504;53.162;6.788;2023-11-21T08:25:50;17.20;;;12.88;;
55633;SDS011;41504;53.162;6.788;2023-11-21T08:28:19;16.75;;;13.38;;
55633;SDS011;41504;53.162;6.788;2023-11-21T08:30:47;18.67;;;12.63;;
55633;SDS011;41504;53.162;6.788;2023-11-21T08:33:13;18.63;;;13.25;;
55633;SDS011;41504;53.162;6.788;2023-11-21T08:35:39;17.05;;;12.82;;
55633;SDS011;41504;53.162;6.788;2023-11-21T08:38:05;16.13;;;12.10;;
55633;SDS011;41504;53.162;6.788;2023-11-21T08:40:31;18.95;;;12.70;;
55633;SDS011;41504;53.162;6.788;2023-11-21T08:42:57;20.77;;;13.18;;
55633;SDS011;41504;53.162;6.788;2023-11-21T08:45:27;16.13;;;12.73;;
55633;SDS011;41504;53.162;6.788;2023-11-21T08:47:53;17.35;;;12.88;;
55633;SDS011;41504;53.162;6.788;2023-11-21T08:50:19;16.75;;;12.32;;
55633;SDS011;41504;53.162;6.788;2023-11-21T08:52:45;18.65;;;12.98;;
55633;SDS011;41504;53.162;6.788;2023-11-21T08:55:11;17.63;;;13.38;;
55633;SDS011;41504;53.162;6.788;2023-11-21T08:57:40;16.85;;;12.45;;
55633;SDS011;41504;53.162;6.788;2023-11-21T09:00:08;16.08;;;12.55;;
55633;SDS011;41504;53.162;6.788;2023-11-21T09:02:40;17.60;;;12.30;;
55633;SDS011;41504;53.162;6.788;2023-11-21T09:05:07;16.65;;;12.20;;
55633;SDS011;41504;53.162;6.788;2023-11-21T09:07:36;16.52;;;11.98;;
55633;SDS011;41504;53.162;6.788;2023-11-21T09:10:03;16.25;;;12.32;;
55633;SDS011;41504;53.162;6.788;2023-11-21T09:12:33;16.10;;;11.48;;
55633;SDS011;41504;53.162;6.788;2023-11-21T09:15:03;16.15;;;11.77;;
55633;SDS011;41504;53.162;6.788;2023-11-21T09:17:30;17.75;;;11.98;;
55633;SDS011;41504;53.162;6.788;2023-11-21T09:19:56;17.08;;;11.65;;
55633;SDS011;41504;53.162;6.788;2023-11-21T09:22:22;17.55;;;11.80;;
55633;SDS011;41504;53.162;6.788;2023-11-21T09:24:50;14.80;;;11.32;;
55633;SDS011;41504;53.162;6.788;2023-11-21T09:27:17;16.02;;;11.32;;
55633;SDS011;41504;53.162;6.788;2023-11-21T09:29:44;15.05;;;10.73;;
55633;SDS011;41504;53.162;6.788;2023-11-21T09:32:12;17.20;;;11.05;;
55633;SDS011;41504;53.162;6.788;2023-11-21T09:34:41;15.27;;;10.75;;
55633;SDS011;41504;53.162;6.788;2023-11-21T09:37:07;14.52;;;10.18;;
55633;SDS011;41504;53.162;6.788;2023-11-21T09:39:33;15.10;;;10.30;;
55633;SDS011;41504;53.162;6.788;2023-11-21T09:47:18;13.55;;;9.60;;
55633;SDS011;41504;53.162;6.788;2023-11-21T09:49:51;13.25;;;9.23;;
55633;SDS011;41504;53.162;6.788;2023-11-21T09:52:23;12.02;;;8.57;;
55633;SDS011;41504;53.162;6.788;2023-11-21T09:54:54;13.38;;;9.25;;
55633;SDS011;41504;53.162;6.788;2023-11-21T09:57:24;12.32;;;8.40;;
55633;SDS011;41504;53.162;6.788;2023-11-21T09:59:54;12.75;;;8.35;;
55633;SDS011;41504;53.162;6.788;2023-11-21T10:02:25;12.63;;;7.90;;
55633;SDS011;41504;53.162;6.788;2023-11-21T10:04:54;11.85;;;7.95;;
55633;SDS011;41504;53.162;6.788;2023-11-21T10:07:21;12.40;;;8.70;;
55633;SDS011;41504;53.162;6.788;2023-11-21T10:09:48;10.70;;;8.00;;
55633;SDS011;41504;53.162;6.788;2023-11-21T10:12:18;11.00;;;7.82;;
55633;SDS011;41504;53.162;6.788;2023-11-21T10:14:49;11.02;;;7.75;;
55633;SDS011;41504;53.162;6.788;2023-11-21T10:17:18;11.02;;;7.32;;
55633;SDS011;41504;53.162;6.788;2023-11-21T10:19:46;11.90;;;7.85;;
55633;SDS011;41504;53.162;6.788;2023-11-21T10:22:13;11.20;;;7.45;;
55633;SDS011;41504;53.162;6.788;2023-11-21T10:24:42;10.30;;;7.45;;
55633;SDS011;41504;53.162;6.788;2023-11-21T10:27:08;10.82;;;8.13;;
55633;SDS011;41504;53.162;6.788;2023-11-21T10:29:34;10.75;;;7.47;;
55633;SDS011;41504;53.162;6.788;2023-11-21T10:32:03;10.88;;;7.63;;
55633;SDS011;41504;53.162;6.788;2023-11-21T10:34:30;14.40;;;8.00;;
55633;SDS011;41504;53.162;6.788;2023-11-21T10:36:57;11.40;;;7.60;;
55633;SDS011;41504;53.162;6.788;2023-11-21T10:39:23;11.35;;;7.70;;
55633;SDS011;41504;53.162;6.788;2023-11-21T10:41:53;11.55;;;7.65;;
55633;SDS011;41504;53.162;6.788;2023-11-21T10:44:20;10.80;;;7.60;;
55633;SDS011;41504;53.162;6.788;2023-11-21T10:46:51;12.32;;;7.38;;
55633;SDS011;41504;53.162;6.788;2023-11-21T10:49:26;11.07;;;7.53;;
55633;SDS011;41504;53.162;6.788;2023-11-21T10:51:53;12.05;;;7.78;;
55633;SDS011;41504;53.162;6.788;2023-11-21T10:54:19;12.77;;;7.47;;
55633;SDS011;41504;53.162;6.788;2023-11-21T10:57:06;11.20;;;7.68;;
55633;SDS011;41504;53.162;6.788;2023-11-21T10:59:32;11.20;;;7.53;;
55633;SDS011;41504;53.162;6.788;2023-11-21T11:01:58;12.20;;;8.27;;
55633;SDS011;41504;53.162;6.788;2023-11-21T11:04:27;11.07;;;7.28;;
55633;SDS011;41504;53.162;6.788;2023-11-21T11:07:01;11.52;;;7.32;;
55633;SDS011;41504;53.162;6.788;2023-11-21T11:09:30;10.63;;;7.32;;
55633;SDS011;41504;53.162;6.788;2023-11-21T11:11:59;11.25;;;6.97;;
55633;SDS011;41504;53.162;6.788;2023-11-21T11:14:26;10.80;;;7.07;;
55633;SDS011;41504;53.162;6.788;2023-11-21T11:16:54;10.52;;;6.72;;
55633;SDS011;41504;53.162;6.788;2023-11-21T11:19:21;10.95;;;6.85;;
55633;SDS011;41504;53.162;6.788;2023-11-21T11:21:53;9.30;;;6.13;;
55633;SDS011;41504;53.162;6.788;2023-11-21T11:27:15;10.02;;;6.50;;
55633;SDS011;41504;53.162;6.788;2023-11-21T11:29:57;10.05;;;7.28;;
55633;SDS011;41504;53.162;6.788;2023-11-21T11:38:02;11.30;;;7.07;;
55633;SDS011;41504;53.162;6.788;2023-11-21T11:40:40;11.80;;;6.80;;
55633;SDS011;41504;53.162;6.788;2023-11-21T11:43:10;9.48;;;6.30;;
55633;SDS011;41504;53.162;6.788;2023-11-21T11:45:36;10.98;;;6.75;;
55633;SDS011;41504;53.162;6.788;2023-11-21T11:48:10;10.82;;;7.05;;
55633;SDS011;41504;53.162;6.788;2023-11-21T11:50:42;10.15;;;6.57;;
55633;SDS011;41504;53.162;6.788;2023-11-21T11:53:40;10.68;;;6.90;;
55633;SDS011;41504;53.162;6.788;2023-11-21T11:58:53;10.70;;;6.72;;
55633;SDS011;41504;53.162;6.788;2023-11-21T12:01:24;9.90;;;6.15;;
55633;SDS011;41504;53.162;6.788;2023-11-21T12:06:39;9.25;;;5.78;;
55633;SDS011;41504;53.162;6.788;2023-11-21T12:09:06;8.32;;;5.53;;
55633;SDS011;41504;53.162;6.788;2023-11-21T12:11:32;8.73;;;6.10;;
55633;SDS011;41504;53.162;6.788;2023-11-21T12:14:00;10.82;;;6.32;;
55633;SDS011;41504;53.162;6.788;2023-11-21T12:16:28;8.82;;;5.55;;
55633;SDS011;41504;53.162;6.788;2023-11-21T12:18:57;10.25;;;6.72;;
55633;SDS011;41504;53.162;6.788;2023-11-21T12:21:25;8.98;;;5.63;;
55633;SDS011;41504;53.162;6.788;2023-11-21T12:23:52;9.60;;;6.25;;
55633;SDS011;41504;53.162;6.788;2023-11-21T12:26:18;10.63;;;6.85;;
55633;SDS011;41504;53.162;6.788;2023-11-21T12:28:46;9.65;;;6.28;;
55633;SDS011;41504;53.162;6.788;2023-11-21T12:31:21;10.23;;;6.32;;
55633;SDS011;41504;53.162;6.788;2023-11-21T12:33:54;9.20;;;6.50;;
55633;SDS011;41504;53.162;6.788;2023-11-21T12:36:24;11.48;;;7.13;;
55633;SDS011;41504;53.162;6.788;2023-11-21T12:38:50;12.18;;;6.95;;
55633;SDS011;41504;53.162;6.788;2023-11-21T12:41:19;9.70;;;7.03;;
55633;SDS011;41504;53.162;6.788;2023-11-21T12:43:46;10.95;;;7.00;;
55633;SDS011;41504;53.162;6.788;2023-11-21T12:46:13;10.95;;;6.60;;
55633;SDS011;41504;53.162;6.788;2023-11-21T12:48:43;11.32;;;6.97;;
55633;SDS011;41504;53.162;6.788;2023-11-21T12:51:12;9.98;;;6.32;;
55633;SDS011;41504;53.162;6.788;2023-11-21T12:53:41;9.20;;;6.65;;
55633;SDS011;41504;53.162;6.788;2023-11-21T12:56:11;9.75;;;6.85;;
55633;SDS011;41504;53.162;6.788;2023-11-21T12:58:44;12.55;;;6.85;;
55633;SDS011;41504;53.162;6.788;2023-11-21T13:01:18;10.77;;;6.60;;
55633;SDS011;41504;53.162;6.788;2023-11-21T13:03:47;12.15;;;7.00;;
55633;SDS011;41504;53.162;6.788;2023-11-21T13:06:14;12.00;;;6.85;;
55633;SDS011;41504;53.162;6.788;2023-11-21T13:08:41;11.73;;;6.38;;
55633;SDS011;41504;53.162;6.788;2023-11-21T13:11:09;11.73;;;6.90;;
55633;SDS011;41504;53.162;6.788;2023-11-21T13:13:36;9.95;;;6.30;;
55633;SDS011;41504;53.162;6.788;2023-11-21T13:16:05;10.20;;;6.07;;
55633;SDS011;41504;53.162;6.788;2023-11-21T13:18:33;9.00;;;5.45;;
55633;SDS011;41504;53.162;6.788;2023-11-21T13:21:00;10.18;;;6.03;;
55633;SDS011;41504;53.162;6.788;2023-11-21T13:23:40;9.93;;;6.05;;
55633;SDS011;41504;53.162;6.788;2023-11-21T13:26:07;10.25;;;6.68;;
55633;SDS011;41504;53.162;6.788;2023-11-21T13:28:34;9.95;;;6.15;;
55633;SDS011;41504;53.162;6.788;2023-11-21T13:31:02;12.15;;;6.30;;
55633;SDS011;41504;53.162;6.788;2023-11-21T13:33:35;9.63;;;6.05;;
55633;SDS011;41504;53.162;6.788;2023-11-21T13:36:03;11.77;;;6.80;;
55633;SDS011;41504;53.162;6.788;2023-11-21T13:38:35;10.50;;;6.70;;
55633;SDS011;41504;53.162;6.788;2023-11-21T13:41:02;9.85;;;6.22;;
55633;SDS011;41504;53.162;6.788;2023-11-21T13:43:32;11.82;;;6.68;;
55633;SDS011;41504;53.162;6.788;2023-11-21T13:45:58;9.40;;;6.53;;
55633;SDS011;41504;53.162;6.788;2023-11-21T13:48:38;10.50;;;6.30;;
55633;SDS011;41504;53.162;6.788;2023-11-21T13:51:11;10.82;;;6.40;;
55633;SDS011;41504;53.162;6.788;2023-11-21T13:53:46;11.27;;;7.05;;
55633;SDS011;41504;53.162;6.788;2023-11-21T13:56:15;9.73;;;6.30;;
55633;SDS011;41504;53.162;6.788;2023-11-21T13:58:53;10.35;;;6.10;;
55633;SDS011;41504;53.162;6.788;2023-11-21T14:01:23;9.27;;;5.82;;
55633;SDS011;41504;53.162;6.788;2023-11-21T14:04:04;8.95;;;6.10;;
55633;SDS011;41504;53.162;6.788;2023-11-21T14:06:43;12.35;;;6.68;;
55633;SDS011;41504;53.162;6.788;2023-11-21T14:09:21;9.90;;;6.15;;
55633;SDS011;41504;53.162;6.788;2023-11-21T14:11:53;8.77;;;5.75;;
55633;SDS011;41504;53.162;6.788;2023-11-21T14:14:27;10.15;;;6.25;;
55633;SDS011;41504;53.162;6.788;2023-11-21T14:16:53;9.23;;;5.68;;
55633;SDS011;41504;53.162;6.788;2023-11-21T14:19:25;10.45;;;4.70;;
55633;SDS011;41504;53.162;6.788;2023-11-21T14:21:57;8.55;;;5.40;;
55633;SDS011;41504;53.162;6.788;2023-11-21T14:24:23;8.30;;;5.20;;
55633;SDS011;41504;53.162;6.788;2023-11-21T14:26:49;7.47;;;4.60;;
55633;SDS011;41504;53.162;6.788;2023-11-21T14:29:16;6.90;;;4.53;;
55633;SDS011;41504;53.162;6.788;2023-11-21T14:31:54;7.50;;;4.90;;
55633;SDS011;41504;53.162;6.788;2023-11-21T14:34:23;8.05;;;4.53;;
55633;SDS011;41504;53.162;6.788;2023-11-21T14:36:49;6.72;;;4.18;;
55633;SDS011;41504;53.162;6.788;2023-11-21T14:39:17;7.40;;;4.40;;
55633;SDS011;41504;53.162;6.788;2023-11-21T14:41:52;7.10;;;4.40;;
55633;SDS011;41504;53.162;6.788;2023-11-21T14:44:20;6.40;;;4.00;;
55633;SDS011;41504;53.162;6.788;2023-11-21T14:46:52;9.65;;;4.57;;
55633;SDS011;41504;53.162;6.788;2023-11-21T14:49:20;7.85;;;4.53;;
55633;SDS011;41504;53.162;6.788;2023-11-21T14:51:47;7.53;;;4.32;;
55633;SDS011;41504;53.162;6.788;2023-11-21T14:54:34;7.38;;;4.40;;
55633;SDS011;41504;53.162;6.788;2023-11-21T14:57:09;7.97;;;4.75;;
55633;SDS011;41504;53.162;6.788;2023-11-21T14:59:45;7.68;;;4.60;;